Time;durP1;ratioP1;P1;durP2;ratioP2;P2;SDS_P1;SDS_P2;PMS_P1;PMS_P2;Temp;Humidity;BMP_temperature;BMP_pressure;BME280_temperature;BME280_humidity;BME280_pressure;Samples;Min_cycle;Max_cycle;Signal;HPM_P1;HPM_P2
2021/07/11 00:00:17;;;;;;;3.20;2.90;;;18.80;99.90;;;;;;4995261;28;20584;-74
2021/07/11 00:02:43;;;;;;;4.70;3.20;;;18.90;99.90;;;;;;4987169;28;20232;-74
2021/07/11 00:05:12;;;;;;;4.33;2.63;;;18.90;99.90;;;;;;4991605;28;20429;-73
2021/07/11 00:07:38;;;;;;;3.30;3.00;;;18.80;99.90;;;;;;4989843;28;20225;-73
2021/07/11 00:10:06;;;;;;;5.93;3.00;;;19.00;99.90;;;;;;4988846;28;20487;-74
2021/07/11 00:12:31;;;;;;;2.80;2.53;;;18.90;99.90;;;;;;4987553;28;20825;-74
2021/07/11 00:14:57;;;;;;;3.03;2.73;;;18.90;99.90;;;;;;4994476;28;20466;-74
2021/07/11 00:17:23;;;;;;;2.63;2.43;;;18.80;99.90;;;;;;4968841;28;20734;-74
2021/07/11 00:19:49;;;;;;;2.90;2.60;;;18.80;99.90;;;;;;4991044;28;20783;-72
2021/07/11 00:22:14;;;;;;;2.70;2.50;;;18.80;99.90;;;;;;4991058;28;20243;-74
2021/07/11 00:24:40;;;;;;;3.10;2.80;;;18.80;99.90;;;;;;4990595;28;20985;-72
2021/07/11 00:27:07;;;;;;;3.27;2.97;;;18.80;99.90;;;;;;4992764;28;20754;-73
2021/07/11 00:29:33;;;;;;;3.10;2.80;;;18.80;99.90;;;;;;4992366;28;20911;-73
2021/07/11 00:31:59;;;;;;;2.90;2.63;;;18.90;99.90;;;;;;4982667;28;20437;-73
2021/07/11 00:34:25;;;;;;;2.93;2.63;;;18.80;99.90;;;;;;4996867;28;20486;-72
2021/07/11 00:36:50;;;;;;;4.03;3.10;;;18.90;99.90;;;;;;4994076;28;20567;-72
2021/07/11 00:39:16;;;;;;;3.10;2.80;;;18.80;99.90;;;;;;4990756;28;20392;-73
2021/07/11 00:41:43;;;;;;;3.27;2.50;;;18.70;99.90;;;;;;4994129;28;20240;-74
2021/07/11 00:44:08;;;;;;;3.33;2.80;;;18.80;99.90;;;;;;4994392;28;20703;-73
2021/07/11 00:46:35;;;;;;;4.30;2.93;;;18.70;99.90;;;;;;4980840;28;20950;-74
2021/07/11 00:49:04;;;;;;;3.27;2.97;;;18.70;99.90;;;;;;4973620;28;20443;-74
2021/07/11 00:51:30;;;;;;;3.30;2.77;;;18.70;99.90;;;;;;4994634;28;20471;-73
2021/07/11 00:53:56;;;;;;;3.03;2.73;;;18.70;99.90;;;;;;4994960;28;20480;-73
2021/07/11 00:56:22;;;;;;;3.10;2.80;;;18.70;99.90;;;;;;4991361;28;20502;-73
2021/07/11 00:58:48;;;;;;;3.73;2.80;;;18.70;99.90;;;;;;4993726;28;20356;-73
2021/07/11 01:01:22;;;;;;;3.17;2.87;;;18.70;99.90;;;;;;4992580;28;20355;-73
2021/07/11 01:03:55;;;;;;;3.30;2.90;;;18.50;99.90;;;;;;4994176;28;20447;-72
2021/07/11 01:06:22;;;;;;;4.90;2.90;;;18.60;99.90;;;;;;4993838;28;20645;-73
2021/07/11 01:09:08;;;;;;;3.40;2.87;;;18.60;99.90;;;;;;4995940;28;21009;-72
2021/07/11 01:11:43;;;;;;;6.83;3.10;;;18.60;99.90;;;;;;4994796;28;20882;-73
2021/07/11 01:14:09;;;;;;;3.43;2.90;;;18.60;99.90;;;;;;4991101;28;20459;-73
2021/07/11 01:16:36;;;;;;;3.97;3.20;;;18.60;99.90;;;;;;4990343;28;20447;-72
2021/07/11 01:19:11;;;;;;;4.03;2.70;;;18.60;99.90;;;;;;4993758;28;20432;-73
2021/07/11 01:21:46;;;;;;;3.20;2.90;;;18.70;99.90;;;;;;4991659;28;20479;-74
2021/07/11 01:24:24;;;;;;;3.30;3.00;;;18.80;99.90;;;;;;4991903;28;20444;-73
2021/07/11 01:26:50;;;;;;;4.10;3.00;;;18.80;99.90;;;;;;4987620;28;20450;-73
2021/07/11 01:29:18;;;;;;;3.33;3.03;;;18.70;99.90;;;;;;4990892;28;20436;-73
2021/07/11 01:31:45;;;;;;;4.10;3.40;;;18.60;99.90;;;;;;4986666;28;20851;-72
2021/07/11 01:34:11;;;;;;;3.33;3.03;;;18.70;99.90;;;;;;4990190;28;20471;-73
2021/07/11 01:36:39;;;;;;;4.90;2.93;;;18.80;99.90;;;;;;4995130;28;20861;-72
2021/07/11 01:39:06;;;;;;;4.83;3.03;;;18.70;99.90;;;;;;4994785;28;20498;-72
2021/07/11 01:41:33;;;;;;;4.20;3.07;;;18.80;99.90;;;;;;4992474;28;20464;-73
2021/07/11 01:44:00;;;;;;;2.87;2.67;;;18.80;99.90;;;;;;4996404;28;20459;-73
2021/07/11 01:46:27;;;;;;;3.10;2.80;;;18.80;99.90;;;;;;4992922;28;20506;-74
2021/07/11 01:48:53;;;;;;;3.67;3.27;;;19.00;99.90;;;;;;4992952;28;20502;-74
2021/07/11 01:51:22;;;;;;;3.30;3.00;;;18.90;99.90;;;;;;4994043;28;20451;-73
2021/07/11 01:53:48;;;;;;;3.80;2.93;;;18.90;99.90;;;;;;4991834;28;20502;-73
2021/07/11 01:56:14;;;;;;;5.07;3.30;;;18.90;99.90;;;;;;4980822;28;20795;-73
2021/07/11 01:58:41;;;;;;;6.70;3.50;;;18.70;99.90;;;;;;4994403;28;20452;-73
2021/07/11 02:01:10;;;;;;;3.13;2.83;;;18.80;99.90;;;;;;4995412;28;20884;-73
2021/07/11 02:03:38;;;;;;;3.47;3.00;;;18.80;99.90;;;;;;4992483;28;20899;-73
2021/07/11 02:06:05;;;;;;;3.20;2.90;;;18.90;99.90;;;;;;4991759;28;20734;-73
2021/07/11 02:08:31;;;;;;;3.20;2.90;;;18.90;99.90;;;;;;4995824;28;20425;-72
2021/07/11 02:10:59;;;;;;;6.50;3.03;;;18.90;99.90;;;;;;4992130;28;20432;-72
2021/07/11 02:13:35;;;;;;;3.80;2.87;;;18.90;99.90;;;;;;4993650;28;20213;-73
2021/07/11 02:16:09;;;;;;;2.90;2.60;;;18.90;99.90;;;;;;4978338;28;20964;-72
2021/07/11 02:18:39;;;;;;;3.63;3.23;;;18.80;99.90;;;;;;4995966;28;20571;-73
2021/07/11 02:21:18;;;;;;;3.43;3.13;;;18.70;99.90;;;;;;4998409;28;20475;-73
2021/07/11 02:23:44;;;;;;;3.77;3.10;;;18.60;99.90;;;;;;4997293;28;20459;-73
2021/07/11 02:26:09;;;;;;;3.43;3.13;;;18.60;99.90;;;;;;4977837;28;20437;-72
2021/07/11 02:28:36;;;;;;;7.00;3.50;;;18.70;99.90;;;;;;4997909;28;20642;-72
2021/07/11 02:31:05;;;;;;;3.40;3.10;;;18.60;99.90;;;;;;4996330;28;20190;-73
2021/07/11 02:33:36;;;;;;;3.50;2.80;;;18.70;99.90;;;;;;4974622;28;21012;-72
2021/07/11 02:36:14;;;;;;;3.10;2.90;;;18.70;99.90;;;;;;4992239;28;20432;-72
2021/07/11 02:38:56;;;;;;;4.43;3.40;;;18.70;99.90;;;;;;4998968;28;20467;-72
2021/07/11 02:41:25;;;;;;;4.40;3.53;;;18.70;99.90;;;;;;4993087;28;20483;-73
2021/07/11 02:43:52;;;;;;;4.03;3.63;;;18.60;99.90;;;;;;4996146;28;20902;-73
2021/07/11 02:46:24;;;;;;;3.30;3.00;;;18.60;99.90;;;;;;4979496;28;20924;-72
2021/07/11 02:48:51;;;;;;;4.63;3.33;;;18.60;99.90;;;;;;4992169;28;20934;-73
2021/07/11 02:51:21;;;;;;;4.13;3.63;;;18.50;99.90;;;;;;4995671;28;20570;-73
2021/07/11 02:53:48;;;;;;;3.20;2.90;;;18.50;99.90;;;;;;5001104;28;21020;-74
2021/07/11 02:56:17;;;;;;;3.90;3.60;;;18.40;99.90;;;;;;4997776;28;20443;-74
2021/07/11 02:58:46;;;;;;;4.70;3.57;;;18.50;99.90;;;;;;5005019;28;20439;-73
2021/07/11 03:01:13;;;;;;;3.63;3.33;;;18.50;99.90;;;;;;4998365;28;20510;-73
2021/07/11 03:03:40;;;;;;;3.50;3.20;;;18.50;99.90;;;;;;5000457;28;20455;-72
2021/07/11 03:06:05;;;;;;;3.97;3.60;;;18.50;99.90;;;;;;4998436;28;20439;-73
2021/07/11 03:08:32;;;;;;;5.30;3.53;;;18.40;99.90;;;;;;4998800;28;20444;-73
2021/07/11 03:10:59;;;;;;;3.60;3.30;;;18.50;99.90;;;;;;5000787;28;20236;-73
2021/07/11 03:13:25;;;;;;;3.53;3.23;;;18.40;99.90;;;;;;4997194;28;20579;-73
2021/07/11 03:15:51;;;;;;;3.90;3.60;;;18.40;99.90;;;;;;4999016;28;20473;-72
2021/07/11 03:18:17;;;;;;;6.60;3.60;;;18.40;99.90;;;;;;4996975;28;20473;-73
2021/07/11 03:20:48;;;;;;;3.73;3.30;;;18.40;99.90;;;;;;5001045;28;20241;-73
2021/07/11 03:23:15;;;;;;;4.70;3.43;;;18.30;99.90;;;;;;4997204;28;21032;-74
2021/07/11 03:25:41;;;;;;;3.70;3.33;;;18.30;99.90;;;;;;4982512;28;20443;-73
2021/07/11 03:28:07;;;;;;;3.20;2.87;;;18.40;99.90;;;;;;4998041;28;20448;-73
2021/07/11 03:30:38;;;;;;;4.10;3.70;;;18.40;99.90;;;;;;4998844;28;20491;-74
2021/07/11 03:33:06;;;;;;;3.30;3.00;;;18.40;99.90;;;;;;5002061;28;20456;-73
2021/07/11 03:35:43;;;;;;;6.67;4.27;;;18.40;99.90;;;;;;4998529;28;20465;-74
2021/07/11 03:38:13;;;;;;;3.87;3.43;;;18.40;99.90;;;;;;4993577;28;20443;-73
2021/07/11 03:40:43;;;;;;;4.10;3.47;;;18.30;99.90;;;;;;5004626;28;20839;-73
2021/07/11 03:43:10;;;;;;;5.30;3.93;;;18.30;99.90;;;;;;4983768;28;20515;-73
2021/07/11 03:45:40;;;;;;;5.13;3.37;;;18.30;99.90;;;;;;4999313;28;20433;-73
2021/07/11 03:48:08;;;;;;;5.27;3.30;;;18.30;99.90;;;;;;4997425;28;20449;-73
2021/07/11 03:50:36;;;;;;;3.40;3.10;;;18.30;99.90;;;;;;4996556;28;20451;-74
2021/07/11 03:53:05;;;;;;;3.50;3.20;;;18.20;99.90;;;;;;4998735;28;20467;-74
2021/07/11 03:55:33;;;;;;;5.37;3.27;;;18.20;99.90;;;;;;4997660;28;20941;-73
2021/07/11 03:58:00;;;;;;;4.20;3.83;;;18.30;99.90;;;;;;4996429;28;20432;-72
2021/07/11 04:00:27;;;;;;;4.97;3.70;;;18.30;99.90;;;;;;5001832;28;20478;-73
2021/07/11 04:02:53;;;;;;;4.00;3.60;;;18.30;99.90;;;;;;5000035;28;20484;-72
2021/07/11 04:05:28;;;;;;;3.97;3.57;;;18.20;99.90;;;;;;4996161;28;20491;-73
2021/07/11 04:07:55;;;;;;;5.40;3.77;;;18.20;99.90;;;;;;4994238;28;20530;-72
2021/07/11 04:10:26;;;;;;;6.20;4.37;;;18.20;99.90;;;;;;4996903;28;20441;-73
2021/07/11 04:12:53;;;;;;;4.93;3.37;;;18.20;99.90;;;;;;4996583;28;20532;-73
2021/07/11 04:15:19;;;;;;;5.70;3.10;;;18.20;99.90;;;;;;5000484;28;20577;-73
2021/07/11 04:17:48;;;;;;;4.10;3.60;;;18.20;99.90;;;;;;4995737;28;20449;-73
2021/07/11 04:20:17;;;;;;;5.10;3.73;;;18.10;99.90;;;;;;4998723;28;20481;-74
2021/07/11 04:22:45;;;;;;;7.97;4.23;;;18.20;99.90;;;;;;4997947;28;20463;-74
2021/07/11 04:25:12;;;;;;;3.50;3.20;;;18.20;99.90;;;;;;4996391;28;20428;-74
2021/07/11 04:27:38;;;;;;;5.47;3.80;;;18.20;99.90;;;;;;4998651;28;20436;-73
2021/07/11 04:30:06;;;;;;;6.30;3.50;;;18.20;99.90;;;;;;4996391;28;20889;-74
2021/07/11 04:32:32;;;;;;;4.90;3.70;;;18.20;99.90;;;;;;4994984;28;20491;-74
2021/07/11 04:34:58;;;;;;;9.23;3.67;;;18.30;99.90;;;;;;4998186;28;20440;-74
2021/07/11 04:37:24;;;;;;;5.63;3.40;;;18.20;99.90;;;;;;5000363;28;20806;-74
2021/07/11 04:39:49;;;;;;;4.03;3.63;;;18.20;99.90;;;;;;4997797;28;20207;-74
2021/07/11 04:42:16;;;;;;;4.80;3.60;;;18.00;99.90;;;;;;4998736;28;20189;-74
2021/07/11 04:44:45;;;;;;;5.33;4.03;;;18.00;99.90;;;;;;4981758;28;20601;-74
2021/07/11 04:47:14;;;;;;;7.23;3.77;;;18.10;99.90;;;;;;4999092;28;20797;-74
2021/07/11 04:49:41;;;;;;;7.63;4.00;;;18.10;99.90;;;;;;5002723;28;20971;-73
2021/07/11 04:52:07;;;;;;;10.73;4.47;;;18.10;99.90;;;;;;4994802;28;20445;-74
2021/07/11 04:54:34;;;;;;;5.57;4.30;;;18.00;99.90;;;;;;4999221;28;20473;-74
2021/07/11 04:57:00;;;;;;;4.67;3.33;;;18.00;99.90;;;;;;4996895;28;20440;-74
2021/07/11 04:59:26;;;;;;;4.80;3.70;;;18.00;99.90;;;;;;4999845;28;20420;-73
2021/07/11 05:01:52;;;;;;;4.83;3.73;;;18.00;99.90;;;;;;4977524;28;20836;-74
2021/07/11 05:04:18;;;;;;;9.13;4.20;;;18.00;99.90;;;;;;4979711;28;20852;-73
2021/07/11 05:06:43;;;;;;;7.80;3.30;;;17.90;99.90;;;;;;4996852;28;20193;-73
2021/07/11 05:09:09;;;;;;;4.60;3.40;;;17.90;99.90;;;;;;4995106;28;20185;-73
2021/07/11 05:11:35;;;;;;;6.87;4.20;;;17.90;99.90;;;;;;4998141;28;20185;-73
2021/07/11 05:14:02;;;;;;;3.60;3.30;;;18.00;99.90;;;;;;5013131;28;20212;-72
2021/07/11 05:16:28;;;;;;;5.00;3.37;;;18.00;99.90;;;;;;5013826;28;21047;-73
2021/07/11 05:18:54;;;;;;;4.50;3.70;;;18.00;99.90;;;;;;5010347;28;20440;-73
2021/07/11 05:21:20;;;;;;;4.60;3.53;;;18.00;99.90;;;;;;5016738;28;20482;-72
2021/07/11 05:23:46;;;;;;;4.90;3.63;;;18.10;99.90;;;;;;5005275;28;20192;-73
2021/07/11 05:26:12;;;;;;;4.80;3.47;;;18.10;99.90;;;;;;4995656;28;20509;-72
2021/07/11 05:28:40;;;;;;;6.50;3.90;;;18.10;99.90;;;;;;4997234;28;20204;-72
2021/07/11 05:31:06;;;;;;;5.63;4.03;;;18.20;99.90;;;;;;4993102;28;20455;-73
2021/07/11 05:33:33;;;;;;;6.60;4.50;;;18.20;99.90;;;;;;4996641;28;20554;-74
2021/07/11 05:35:59;;;;;;;3.83;3.17;;;18.30;99.90;;;;;;4995753;28;20447;-74
2021/07/11 05:38:25;;;;;;;5.70;3.23;;;18.30;99.90;;;;;;4993336;28;21057;-73
2021/07/11 05:40:51;;;;;;;3.83;3.50;;;18.20;99.90;;;;;;4988119;28;20556;-73
2021/07/11 05:43:17;;;;;;;3.97;3.63;;;18.20;99.90;;;;;;4990757;28;20468;-73
2021/07/11 05:45:43;;;;;;;4.10;3.70;;;18.20;99.90;;;;;;4993854;28;20217;-73
2021/07/11 05:48:09;;;;;;;4.30;3.40;;;18.20;99.90;;;;;;4994979;28;20460;-73
2021/07/11 05:50:34;;;;;;;6.10;3.93;;;18.20;99.90;;;;;;4995118;28;20436;-74
2021/07/11 05:53:00;;;;;;;7.67;3.50;;;18.30;99.90;;;;;;4998480;28;20279;-73
2021/07/11 05:55:27;;;;;;;3.53;2.87;;;18.40;99.90;;;;;;4994725;28;20193;-73
2021/07/11 05:57:53;;;;;;;3.43;3.13;;;18.50;99.90;;;;;;4995395;28;20690;-72
2021/07/11 06:00:19;;;;;;;4.17;3.60;;;18.30;99.90;;;;;;4995940;28;20472;-74
2021/07/11 06:02:44;;;;;;;9.43;3.40;;;18.30;99.90;;;;;;4995500;28;20729;-73
2021/07/11 06:05:10;;;;;;;4.30;3.57;;;18.40;99.90;;;;;;4994663;28;20433;-74
2021/07/11 06:07:36;;;;;;;3.83;3.40;;;18.40;99.90;;;;;;4996574;28;20613;-74
2021/07/11 06:10:05;;;;;;;4.30;3.73;;;18.40;99.90;;;;;;4993976;28;20491;-73
2021/07/11 06:12:31;;;;;;;3.50;3.20;;;18.50;99.90;;;;;;4993280;28;20188;-74
2021/07/11 06:14:57;;;;;;;3.77;3.40;;;18.40;99.90;;;;;;4995686;28;20976;-73
2021/07/11 06:17:23;;;;;;;4.33;3.10;;;18.30;99.90;;;;;;4994617;28;20190;-73
2021/07/11 06:19:49;;;;;;;7.30;3.23;;;18.30;99.90;;;;;;4992648;28;20221;-73
2021/07/11 06:22:14;;;;;;;6.00;3.40;;;18.40;99.90;;;;;;4998226;28;20469;-75
2021/07/11 06:24:40;;;;;;;3.97;2.90;;;18.50;99.90;;;;;;4994614;28;20213;-74
2021/07/11 06:27:06;;;;;;;3.20;2.90;;;18.60;99.90;;;;;;4997171;28;20182;-73
2021/07/11 06:29:32;;;;;;;4.60;2.87;;;18.60;99.90;;;;;;5000134;28;20184;-73
2021/07/11 06:31:58;;;;;;;3.97;3.30;;;18.60;99.90;;;;;;4998836;28;20186;-73
2021/07/11 06:34:23;;;;;;;4.07;3.00;;;18.70;99.90;;;;;;4998315;28;20281;-73
2021/07/11 06:36:49;;;;;;;3.40;3.10;;;18.70;99.90;;;;;;4999074;28;20454;-72
2021/07/11 06:39:15;;;;;;;3.30;3.00;;;18.80;99.90;;;;;;4999066;28;20196;-74
2021/07/11 06:41:40;;;;;;;4.50;3.00;;;18.80;99.90;;;;;;4984018;28;20213;-73
2021/07/11 06:44:06;;;;;;;4.70;2.87;;;18.80;99.90;;;;;;4999500;28;20233;-72
2021/07/11 06:46:32;;;;;;;7.03;2.90;;;18.80;99.90;;;;;;5000837;28;20708;-72
2021/07/11 06:48:58;;;;;;;5.60;3.23;;;18.80;99.90;;;;;;5002442;28;20209;-73
2021/07/11 06:51:23;;;;;;;4.23;2.70;;;18.80;99.90;;;;;;4998244;28;20615;-73
2021/07/11 06:53:49;;;;;;;4.33;3.03;;;18.80;99.90;;;;;;4997366;28;20352;-74
2021/07/11 06:56:15;;;;;;;3.20;2.90;;;19.00;99.90;;;;;;4999249;28;20815;-73
2021/07/11 06:58:40;;;;;;;3.87;2.93;;;19.10;99.90;;;;;;4999144;28;20177;-72
2021/07/11 07:01:06;;;;;;;3.70;2.83;;;19.10;99.90;;;;;;4994717;28;20226;-73
2021/07/11 07:03:32;;;;;;;5.30;2.60;;;19.10;99.90;;;;;;5001230;28;20672;-73
2021/07/11 07:05:57;;;;;;;2.80;2.60;;;19.20;99.90;;;;;;4981987;28;20667;-74
2021/07/11 07:08:28;;;;;;;5.23;3.20;;;19.10;99.90;;;;;;4984328;28;20194;-74
2021/07/11 07:10:54;;;;;;;6.57;3.00;;;19.20;99.90;;;;;;4995128;28;20229;-73
2021/07/11 07:13:21;;;;;;;3.67;2.87;;;19.20;99.90;;;;;;4999111;28;20491;-73
2021/07/11 07:15:47;;;;;;;3.70;3.00;;;19.20;99.90;;;;;;5001494;28;20473;-73
2021/07/11 07:18:13;;;;;;;2.93;2.57;;;19.10;99.90;;;;;;4996439;28;20439;-74
2021/07/11 07:20:39;;;;;;;3.37;2.80;;;19.30;99.90;;;;;;4982752;28;20216;-74
2021/07/11 07:23:05;;;;;;;3.70;2.97;;;19.30;99.90;;;;;;4983389;28;20507;-74
2021/07/11 07:25:37;;;;;;;3.43;2.50;;;19.30;99.90;;;;;;4999131;28;20667;-74
2021/07/11 07:28:03;;;;;;;25.00;3.27;;;19.30;99.90;;;;;;4995958;28;20217;-73
2021/07/11 07:30:38;;;;;;;3.40;2.40;;;19.30;99.90;;;;;;5001302;28;20470;-76
2021/07/11 07:33:11;;;;;;;3.43;3.13;;;19.40;99.90;;;;;;4999380;28;20511;-74
2021/07/11 07:35:39;;;;;;;3.03;2.50;;;19.50;99.90;;;;;;4996978;28;20471;-75
2021/07/11 07:38:06;;;;;;;3.03;2.73;;;19.50;99.90;;;;;;4996964;28;20437;-74
2021/07/11 07:40:32;;;;;;;2.97;2.70;;;19.50;99.90;;;;;;5001269;28;20464;-74
2021/07/11 07:42:58;;;;;;;3.37;3.07;;;19.40;99.90;;;;;;4987678;28;20466;-74
2021/07/11 07:45:23;;;;;;;3.07;2.60;;;19.30;99.90;;;;;;5000405;28;20448;-75
2021/07/11 07:47:50;;;;;;;3.30;2.37;;;19.20;99.90;;;;;;5002740;28;20196;-74
2021/07/11 07:50:17;;;;;;;3.97;2.83;;;19.40;99.90;;;;;;5004210;28;20192;-74
2021/07/11 07:52:43;;;;;;;4.13;2.80;;;19.50;99.90;;;;;;4999485;28;20468;-73
2021/07/11 07:55:10;;;;;;;3.80;3.30;;;19.60;99.90;;;;;;4983583;28;20467;-73
2021/07/11 07:57:36;;;;;;;4.40;3.23;;;19.60;99.90;;;;;;5001500;28;20518;-73
2021/07/11 08:00:05;;;;;;;5.23;3.30;;;19.60;99.90;;;;;;4999602;28;20443;-73
2021/07/11 08:02:31;;;;;;;3.13;2.80;;;19.50;99.90;;;;;;4998556;28;20539;-73
2021/07/11 08:04:57;;;;;;;4.67;3.13;;;19.50;99.90;;;;;;4997804;28;20518;-74
2021/07/11 08:07:26;;;;;;;5.80;4.47;;;19.60;99.90;;;;;;5002120;28;20525;-76
2021/07/11 08:09:52;;;;;;;3.40;3.10;;;19.70;99.90;;;;;;4996542;28;20189;-74
2021/07/11 08:12:18;;;;;;;3.50;2.83;;;19.80;99.90;;;;;;4998245;28;20450;-74
2021/07/11 08:14:44;;;;;;;3.33;2.50;;;19.90;99.90;;;;;;4999842;28;20595;-74
2021/07/11 08:17:10;;;;;;;4.00;3.13;;;20.00;99.90;;;;;;4996027;28;20520;-75
2021/07/11 08:19:35;;;;;;;4.10;3.47;;;20.10;99.90;;;;;;4984465;28;20208;-75
2021/07/11 08:22:01;;;;;;;3.90;3.60;;;20.10;99.90;;;;;;4995343;28;20300;-76
2021/07/11 08:24:27;;;;;;;3.07;2.77;;;20.30;99.90;;;;;;4996233;28;20228;-75
2021/07/11 08:26:53;;;;;;;6.10;4.50;;;20.50;99.90;;;;;;4996740;28;20580;-75
2021/07/11 08:29:18;;;;;;;4.40;3.80;;;20.40;99.90;;;;;;4992928;28;20652;-74
2021/07/11 08:31:44;;;;;;;8.03;2.93;;;20.50;99.90;;;;;;4998281;28;20196;-74
2021/07/11 08:34:10;;;;;;;4.10;3.00;;;20.60;99.90;;;;;;4995689;28;20212;-75
2021/07/11 08:36:36;;;;;;;3.57;3.17;;;20.60;99.90;;;;;;4979671;28;20194;-75
2021/07/11 08:39:03;;;;;;;6.83;3.37;;;20.50;99.90;;;;;;4979164;28;20193;-75
2021/07/11 08:41:29;;;;;;;5.37;3.10;;;20.70;99.90;;;;;;4996465;28;20663;-75
2021/07/11 08:43:55;;;;;;;6.93;3.00;;;20.90;99.90;;;;;;4994761;28;20465;-75
2021/07/11 08:46:20;;;;;;;3.67;3.37;;;20.90;99.90;;;;;;4996076;28;21254;-75
2021/07/11 08:48:48;;;;;;;4.93;3.27;;;21.10;99.90;;;;;;4995202;28;20448;-75
2021/07/11 08:51:15;;;;;;;3.63;3.00;;;21.10;99.90;;;;;;4997193;28;20653;-75
2021/07/11 08:53:53;;;;;;;4.20;3.80;;;20.90;99.90;;;;;;5000185;28;21134;-75
2021/07/11 08:56:25;;;;;;;4.20;3.10;;;21.00;99.90;;;;;;4986040;28;20442;-75
2021/07/11 08:58:53;;;;;;;3.90;3.00;;;21.20;99.90;;;;;;4996318;28;20444;-76
2021/07/11 09:01:20;;;;;;;5.20;3.50;;;21.20;99.90;;;;;;4996400;28;20559;-76
2021/07/11 09:04:06;;;;;;;5.80;3.50;;;21.10;99.90;;;;;;4997810;28;20500;-75
2021/07/11 09:06:54;;;;;;;3.20;2.90;;;21.30;99.90;;;;;;4994434;28;20436;-72
2021/07/11 09:09:32;;;;;;;4.53;2.80;;;21.50;99.90;;;;;;5002953;28;20455;-73
2021/07/11 09:12:06;;;;;;;4.00;3.23;;;21.50;99.90;;;;;;4994197;28;20666;-73
2021/07/11 09:14:43;;;;;;;3.60;2.97;;;21.70;99.90;;;;;;4994646;28;20473;-74
2021/07/11 09:17:11;;;;;;;3.20;2.90;;;21.60;99.90;;;;;;4996418;28;20790;-73
2021/07/11 09:19:48;;;;;;;3.23;2.93;;;21.70;99.90;;;;;;4980210;28;20827;-72
2021/07/11 09:22:17;;;;;;;4.00;3.60;;;21.90;99.90;;;;;;4994037;28;20468;-73
2021/07/11 09:25:00;;;;;;;3.37;3.07;;;22.10;99.90;;;;;;4996291;28;21068;-73
2021/07/11 09:27:37;;;;;;;4.80;2.90;;;22.20;99.90;;;;;;4996387;28;20436;-75
2021/07/11 09:30:08;;;;;;;3.30;2.70;;;22.40;99.90;;;;;;4991809;28;20508;-73
2021/07/11 09:32:36;;;;;;;3.10;2.80;;;22.40;99.90;;;;;;4994407;28;20453;-74
2021/07/11 09:35:21;;;;;;;3.07;2.77;;;22.50;99.90;;;;;;4994443;28;20812;-74
2021/07/11 09:37:52;;;;;;;4.00;2.97;;;22.20;99.90;;;;;;4999142;28;20810;-74
2021/07/11 09:40:19;;;;;;;3.57;2.90;;;22.40;99.90;;;;;;4995788;28;20557;-74
2021/07/11 09:42:50;;;;;;;3.83;3.50;;;22.30;99.90;;;;;;4995004;28;20464;-73
2021/07/11 09:45:21;;;;;;;4.60;3.93;;;22.20;99.90;;;;;;4995705;28;20467;-74
2021/07/11 09:47:48;;;;;;;4.50;3.30;;;22.50;99.90;;;;;;4997100;28;20518;-73
2021/07/11 09:50:21;;;;;;;3.40;2.87;;;22.60;99.90;;;;;;5000696;28;20515;-76
2021/07/11 09:52:49;;;;;;;2.83;2.63;;;22.60;99.90;;;;;;4995440;28;21213;-74
2021/07/11 09:55:19;;;;;;;3.43;3.13;;;22.80;99.90;;;;;;4994705;28;20436;-72
2021/07/11 09:57:53;;;;;;;4.93;3.20;;;22.70;99.90;;;;;;4993196;28;20440;-74
2021/07/11 10:00:20;;;;;;;5.80;2.47;;;22.80;99.90;;;;;;4994622;28;20471;-74
2021/07/11 10:02:49;;;;;;;4.33;3.27;;;23.00;99.90;;;;;;4995892;28;20529;-74
2021/07/11 10:05:16;;;;;;;4.70;3.53;;;23.10;99.90;;;;;;4998556;28;20439;-75
2021/07/11 10:07:43;;;;;;;3.23;2.93;;;23.10;99.90;;;;;;4998714;28;20566;-74
2021/07/11 10:10:11;;;;;;;2.93;2.70;;;23.10;99.90;;;;;;4994868;28;20443;-75
2021/07/11 10:12:38;;;;;;;5.50;3.10;;;23.20;99.90;;;;;;4998504;28;20439;-73
2021/07/11 10:15:11;;;;;;;2.90;2.67;;;23.20;99.90;;;;;;4998327;28;20460;-74
2021/07/11 10:17:43;;;;;;;3.47;2.70;;;23.00;99.90;;;;;;4994226;28;21575;-74
2021/07/11 10:20:10;;;;;;;2.93;2.73;;;23.00;99.90;;;;;;4982140;28;20437;-74
2021/07/11 10:22:47;;;;;;;5.73;2.70;;;23.10;99.90;;;;;;4999309;28;20435;-75
2021/07/11 10:25:16;;;;;;;3.87;2.57;;;23.30;99.90;;;;;;4999865;28;20438;-75
2021/07/11 10:27:43;;;;;;;3.00;2.50;;;23.20;99.90;;;;;;5003406;28;20450;-76
2021/07/11 10:30:10;;;;;;;2.60;2.40;;;23.10;99.90;;;;;;4992920;28;20457;-75
2021/07/11 10:32:36;;;;;;;3.80;3.23;;;23.00;99.90;;;;;;4997374;28;20436;-73
2021/07/11 10:35:17;;;;;;;2.90;2.70;;;23.10;99.90;;;;;;4995490;28;20501;-74
2021/07/11 10:37:52;;;;;;;2.93;2.70;;;23.10;99.90;;;;;;4997645;28;20446;-73
2021/07/11 10:40:35;;;;;;;3.47;3.17;;;23.00;99.90;;;;;;4995005;28;20478;-74
2021/07/11 10:43:12;;;;;;;2.73;2.53;;;22.90;99.90;;;;;;4995122;28;20464;-73
2021/07/11 10:45:47;;;;;;;3.73;2.70;;;23.00;99.90;;;;;;4999786;28;20436;-74
2021/07/11 10:48:13;;;;;;;2.60;2.40;;;23.10;99.90;;;;;;5016672;28;20442;-74
2021/07/11 10:50:43;;;;;;;2.57;2.37;;;23.20;99.90;;;;;;5022173;28;20462;-73
2021/07/11 10:53:17;;;;;;;3.67;2.90;;;23.10;99.90;;;;;;5023227;28;20550;-74
2021/07/11 10:55:44;;;;;;;4.27;3.07;;;23.00;99.90;;;;;;5016436;28;20444;-72
2021/07/11 10:58:19;;;;;;;4.00;3.57;;;23.00;99.90;;;;;;4996989;28;20456;-73
2021/07/11 11:00:46;;;;;;;3.30;3.00;;;23.00;99.90;;;;;;4999284;28;20909;-73
2021/07/11 11:03:21;;;;;;;3.40;3.10;;;23.20;99.90;;;;;;4979591;28;20460;-73
2021/07/11 11:05:49;;;;;;;4.00;3.20;;;23.30;99.90;;;;;;4995155;28;20992;-74
2021/07/11 11:08:17;;;;;;;3.23;2.83;;;23.40;99.90;;;;;;4998561;28;20428;-74
2021/07/11 11:10:46;;;;;;;2.93;2.73;;;23.70;99.90;;;;;;4998301;28;20451;-74
2021/07/11 11:13:15;;;;;;;3.37;3.07;;;24.00;99.90;;;;;;4999095;28;20483;-74
2021/07/11 11:15:48;;;;;;;2.97;2.67;;;23.90;99.90;;;;;;4998069;28;20805;-73
2021/07/11 11:18:30;;;;;;;3.20;2.90;;;23.60;99.90;;;;;;4996306;28;20452;-74
2021/07/11 11:20:59;;;;;;;2.50;2.23;;;23.50;99.90;;;;;;4997386;28;20475;-74
2021/07/11 11:23:27;;;;;;;3.07;2.87;;;23.30;99.90;;;;;;4990593;28;20459;-74
2021/07/11 11:25:54;;;;;;;4.60;2.77;;;23.20;99.90;;;;;;4996794;28;20471;-73
2021/07/11 11:28:30;;;;;;;3.80;2.83;;;23.20;99.90;;;;;;4996637;28;20770;-74
2021/07/11 11:31:16;;;;;;;3.10;2.43;;;23.00;99.90;;;;;;4999540;28;20973;-75
2021/07/11 11:33:51;;;;;;;5.63;3.50;;;22.90;99.90;;;;;;4977075;28;20463;-75
2021/07/11 11:36:23;;;;;;;6.57;2.90;;;22.70;99.90;;;;;;4989842;28;20435;-75
2021/07/11 11:38:50;;;;;;;2.37;2.17;;;22.60;99.90;;;;;;4994832;28;21616;-76
2021/07/11 11:41:18;;;;;;;3.20;2.50;;;22.60;99.90;;;;;;4995475;28;21105;-74
2021/07/11 11:43:47;;;;;;;3.13;2.83;;;22.60;99.90;;;;;;4967156;28;20637;-75
2021/07/11 11:46:31;;;;;;;2.73;2.50;;;22.70;99.90;;;;;;4981901;28;20450;-76
2021/07/11 11:49:13;;;;;;;5.30;2.77;;;22.80;99.90;;;;;;4991995;28;20441;-74
2021/07/11 11:51:59;;;;;;;4.20;2.87;;;22.70;99.90;;;;;;4999400;28;20448;-74
2021/07/11 11:54:33;;;;;;;3.40;2.90;;;22.60;99.90;;;;;;4996380;28;20475;-74
2021/07/11 11:57:00;;;;;;;3.70;3.00;;;22.50;99.90;;;;;;4989692;28;20432;-74
2021/07/11 11:59:27;;;;;;;3.47;3.07;;;22.40;99.90;;;;;;4998038;28;20432;-77
2021/07/11 12:02:02;;;;;;;3.27;2.63;;;22.40;99.90;;;;;;4995696;28;20929;-72
2021/07/11 12:04:32;;;;;;;3.90;2.93;;;22.40;99.90;;;;;;4996305;28;20494;-74
2021/07/11 12:07:01;;;;;;;2.90;2.70;;;22.40;99.90;;;;;;4979302;28;20845;-74
2021/07/11 12:09:32;;;;;;;3.60;3.20;;;22.50;99.90;;;;;;4954535;28;20823;-79
2021/07/11 12:12:11;;;;;;;3.77;2.63;;;22.60;99.90;;;;;;4982257;28;20779;-74
2021/07/11 12:14:42;;;;;;;3.87;2.83;;;22.70;99.90;;;;;;4980036;28;20451;-75
2021/07/11 12:17:10;;;;;;;3.60;2.83;;;22.70;99.90;;;;;;4994365;28;20768;-73
2021/07/11 12:19:45;;;;;;;4.30;2.90;;;22.80;99.90;;;;;;4996456;28;20436;-75
2021/07/11 12:22:19;;;;;;;4.47;3.13;;;23.00;99.90;;;;;;4996079;28;20934;-74
2021/07/11 12:25:06;;;;;;;3.47;3.00;;;23.20;99.90;;;;;;4998159;28;20452;-75
2021/07/11 12:27:36;;;;;;;3.93;2.63;;;23.40;99.90;;;;;;4997519;28;20421;-74
2021/07/11 12:30:26;;;;;;;2.67;2.47;;;23.60;99.90;;;;;;4997668;28;20445;-78
2021/07/11 12:32:54;;;;;;;3.00;2.80;;;23.70;99.90;;;;;;4995790;28;20478;-76
2021/07/11 12:35:26;;;;;;;2.80;2.60;;;24.10;99.90;;;;;;4992807;28;20479;-72
2021/07/11 12:37:54;;;;;;;4.70;2.40;;;24.20;99.90;;;;;;4996835;28;20455;-73
2021/07/11 12:40:23;;;;;;;2.80;2.50;;;24.50;99.90;;;;;;4994349;28;20475;-74
2021/07/11 12:43:06;;;;;;;2.83;2.60;;;24.40;99.90;;;;;;4986704;28;20487;-77
2021/07/11 12:45:31;;;;;;;2.90;2.70;;;24.90;99.90;;;;;;4995075;28;20912;-75
2021/07/11 12:47:57;;;;;;;3.80;2.50;;;25.20;99.90;;;;;;4992035;28;20448;-74
2021/07/11 12:50:40;;;;;;;3.00;2.70;;;25.00;99.90;;;;;;4992140;28;20197;-74
2021/07/11 12:53:07;;;;;;;3.10;2.90;;;24.60;99.90;;;;;;4992916;28;20700;-74
2021/07/11 12:55:33;;;;;;;2.60;2.40;;;24.30;99.90;;;;;;4994413;28;20973;-74